sensor_id;sensor_type;location;lat;lon;timestamp;pressure;altitude;pressure_sealevel;temperature;humidity
54369;BME280;40266;52.434;17.056;2022-11-25T00:02:32;100634.63;;;2.07;100.00
54369;BME280;40266;52.434;17.056;2022-11-25T00:05:15;100633.74;;;2.06;100.00
54369;BME280;40266;52.434;17.056;2022-11-25T00:07:58;100628.03;;;2.04;100.00
54369;BME280;40266;52.434;17.056;2022-11-25T00:10:41;100631.30;;;2.05;100.00
54369;BME280;40266;52.434;17.056;2022-11-25T00:13:23;100631.30;;;2.04;100.00
54369;BME280;40266;52.434;17.056;2022-11-25T00:16:20;100632.48;;;2.03;100.00
54369;BME280;40266;52.434;17.056;2022-11-25T00:19:04;100635.57;;;2.02;100.00
54369;BME280;40266;52.434;17.056;2022-11-25T00:21:47;100637.65;;;2.03;100.00
54369;BME280;40266;52.434;17.056;2022-11-25T00:24:31;100639.02;;;2.02;100.00
54369;BME280;40266;52.434;17.056;2022-11-25T00:27:14;100632.98;;;2.02;100.00
54369;BME280;40266;52.434;17.056;2022-11-25T00:29:57;100635.77;;;2.03;100.00
54369;BME280;40266;52.434;17.056;2022-11-25T00:32:39;100636.27;;;2.02;100.00
54369;BME280;40266;52.434;17.056;2022-11-25T00:35:22;100637.64;;;2.02;100.00
54369;BME280;40266;52.434;17.056;2022-11-25T00:38:05;100636.80;;;2.04;100.00
54369;BME280;40266;52.434;17.056;2022-11-25T00:40:51;100633.67;;;2.03;100.00
54369;BME280;40266;52.434;17.056;2022-11-25T00:43:53;100633.67;;;2.02;100.00
54369;BME280;40266;52.434;17.056;2022-11-25T00:46:55;100636.44;;;2.03;100.00
54369;BME280;40266;52.434;17.056;2022-11-25T00:49:44;100637.98;;;2.02;100.00
54369;BME280;40266;52.434;17.056;2022-11-25T00:52:27;100632.30;;;2.03;100.00
54369;BME280;40266;52.434;17.056;2022-11-25T00:55:10;100634.05;;;2.04;100.00
54369;BME280;40266;52.434;17.056;2022-11-25T00:57:53;100636.65;;;2.04;100.00
54369;BME280;40266;52.434;17.056;2022-11-25T01:00:36;100640.45;;;2.05;100.00
54369;BME280;40266;52.434;17.056;2022-11-25T01:03:19;100635.98;;;2.06;100.00
54369;BME280;40266;52.434;17.056;2022-11-25T01:06:02;100634.59;;;2.07;100.00
54369;BME280;40266;52.434;17.056;2022-11-25T01:08:45;100634.59;;;2.05;100.00
54369;BME280;40266;52.434;17.056;2022-11-25T01:11:28;100634.23;;;2.04;100.00
54369;BME280;40266;52.434;17.056;2022-11-25T01:14:11;100641.64;;;2.05;100.00
54369;BME280;40266;52.434;17.056;2022-11-25T01:16:54;100648.09;;;2.08;100.00
54369;BME280;40266;52.434;17.056;2022-11-25T01:19:37;100655.33;;;2.09;100.00
54369;BME280;40266;52.434;17.056;2022-11-25T01:22:22;100658.95;;;2.10;100.00
54369;BME280;40266;52.434;17.056;2022-11-25T01:25:06;100656.37;;;2.09;100.00
54369;BME280;40266;52.434;17.056;2022-11-25T01:27:49;100659.45;;;2.08;100.00
54369;BME280;40266;52.434;17.056;2022-11-25T01:30:31;100656.68;;;2.08;100.00
54369;BME280;40266;52.434;17.056;2022-11-25T01:33:19;100651.66;;;2.06;100.00
54369;BME280;40266;52.434;17.056;2022-11-25T01:36:23;100650.95;;;2.05;100.00
54369;BME280;40266;52.434;17.056;2022-11-25T01:39:07;100658.73;;;2.06;100.00
54369;BME280;40266;52.434;17.056;2022-11-25T01:41:50;100662.82;;;2.04;100.00
54369;BME280;40266;52.434;17.056;2022-11-25T01:44:34;100665.94;;;2.05;100.00
54369;BME280;40266;52.434;17.056;2022-11-25T01:47:20;100674.38;;;2.05;100.00
54369;BME280;40266;52.434;17.056;2022-11-25T01:50:06;100674.72;;;2.04;100.00
54369;BME280;40266;52.434;17.056;2022-11-25T01:52:54;100672.11;;;2.03;100.00
54369;BME280;40266;52.434;17.056;2022-11-25T01:55:46;100671.55;;;2.01;100.00
54369;BME280;40266;52.434;17.056;2022-11-25T01:58:33;100672.36;;;1.99;100.00
54369;BME280;40266;52.434;17.056;2022-11-25T02:01:17;100673.58;;;1.99;100.00
54369;BME280;40266;52.434;17.056;2022-11-25T02:04:01;100673.55;;;1.98;100.00
54369;BME280;40266;52.434;17.056;2022-11-25T02:06:49;100673.86;;;1.96;100.00
54369;BME280;40266;52.434;17.056;2022-11-25T02:09:41;100671.77;;;1.94;100.00
54369;BME280;40266;52.434;17.056;2022-11-25T02:12:26;100673.12;;;1.93;100.00
54369;BME280;40266;52.434;17.056;2022-11-25T02:15:13;100676.06;;;1.93;100.00
54369;BME280;40266;52.434;17.056;2022-11-25T02:17:57;100680.58;;;1.95;100.00
54369;BME280;40266;52.434;17.056;2022-11-25T02:20:39;100679.49;;;1.93;100.00
54369;BME280;40266;52.434;17.056;2022-11-25T02:26:25;100685.48;;;1.89;100.00
54369;BME280;40266;52.434;17.056;2022-11-25T02:29:08;100685.32;;;1.91;100.00
54369;BME280;40266;52.434;17.056;2022-11-25T02:31:51;100683.92;;;1.89;100.00
54369;BME280;40266;52.434;17.056;2022-11-25T02:34:44;100678.18;;;1.86;100.00
54369;BME280;40266;52.434;17.056;2022-11-25T02:37:27;100677.80;;;1.84;100.00
54369;BME280;40266;52.434;17.056;2022-11-25T02:40:12;100673.98;;;1.82;100.00
54369;BME280;40266;52.434;17.056;2022-11-25T02:42:58;100674.16;;;1.83;100.00
54369;BME280;40266;52.434;17.056;2022-11-25T02:45:55;100669.64;;;1.80;100.00
54369;BME280;40266;52.434;17.056;2022-11-25T02:48:40;100666.85;;;1.79;100.00
54369;BME280;40266;52.434;17.056;2022-11-25T02:51:44;100671.36;;;1.80;100.00
54369;BME280;40266;52.434;17.056;2022-11-25T02:54:27;100673.96;;;1.82;100.00
54369;BME280;40266;52.434;17.056;2022-11-25T02:57:10;100673.79;;;1.81;100.00
54369;BME280;40266;52.434;17.056;2022-11-25T02:59:53;100676.34;;;1.79;100.00
54369;BME280;40266;52.434;17.056;2022-11-25T03:02:35;100681.29;;;1.78;100.00
54369;BME280;40266;52.434;17.056;2022-11-25T03:05:19;100676.62;;;1.76;100.00
54369;BME280;40266;52.434;17.056;2022-11-25T03:08:03;100675.39;;;1.75;100.00
54369;BME280;40266;52.434;17.056;2022-11-25T03:10:51;100675.42;;;1.77;100.00
54369;BME280;40266;52.434;17.056;2022-11-25T03:13:34;100673.52;;;1.76;100.00
54369;BME280;40266;52.434;17.056;2022-11-25T03:16:18;100672.15;;;1.77;100.00
54369;BME280;40266;52.434;17.056;2022-11-25T03:19:01;100672.88;;;1.78;100.00
54369;BME280;40266;52.434;17.056;2022-11-25T03:21:44;100672.41;;;1.80;100.00
54369;BME280;40266;52.434;17.056;2022-11-25T03:24:27;100666.54;;;1.80;100.00
54369;BME280;40266;52.434;17.056;2022-11-25T03:27:10;100674.81;;;1.80;100.00
54369;BME280;40266;52.434;17.056;2022-11-25T03:29:53;100672.88;;;1.78;100.00
54369;BME280;40266;52.434;17.056;2022-11-25T03:32:37;100682.34;;;1.78;100.00
54369;BME280;40266;52.434;17.056;2022-11-25T03:35:21;100680.77;;;1.77;100.00
54369;BME280;40266;52.434;17.056;2022-11-25T03:38:05;100684.17;;;1.75;100.00
54369;BME280;40266;52.434;17.056;2022-11-25T03:40:50;100681.90;;;1.73;100.00
54369;BME280;40266;52.434;17.056;2022-11-25T03:43:33;100682.87;;;1.71;100.00
54369;BME280;40266;52.434;17.056;2022-11-25T03:46:18;100680.67;;;1.71;100.00
54369;BME280;40266;52.434;17.056;2022-11-25T03:49:01;100677.74;;;1.72;100.00
54369;BME280;40266;52.434;17.056;2022-11-25T03:51:44;100684.11;;;1.72;100.00
54369;BME280;40266;52.434;17.056;2022-11-25T03:54:28;100687.04;;;1.71;100.00
54369;BME280;40266;52.434;17.056;2022-11-25T03:57:30;100686.52;;;1.71;100.00
54369;BME280;40266;52.434;17.056;2022-11-25T04:00:13;100685.94;;;1.68;100.00
54369;BME280;40266;52.434;17.056;2022-11-25T04:03:08;100685.58;;;1.67;100.00
54369;BME280;40266;52.434;17.056;2022-11-25T04:05:50;100685.39;;;1.67;100.00
54369;BME280;40266;52.434;17.056;2022-11-25T04:08:34;100680.59;;;1.67;100.00
54369;BME280;40266;52.434;17.056;2022-11-25T04:11:17;100681.08;;;1.66;100.00
54369;BME280;40266;52.434;17.056;2022-11-25T04:14:02;100680.17;;;1.63;100.00
54369;BME280;40266;52.434;17.056;2022-11-25T04:16:45;100686.66;;;1.61;100.00
54369;BME280;40266;52.434;17.056;2022-11-25T04:19:28;100687.17;;;1.61;100.00
54369;BME280;40266;52.434;17.056;2022-11-25T04:22:11;100689.92;;;1.61;100.00
54369;BME280;40266;52.434;17.056;2022-11-25T04:24:57;100690.29;;;1.61;100.00
54369;BME280;40266;52.434;17.056;2022-11-25T04:27:40;100689.22;;;1.59;100.00
54369;BME280;40266;52.434;17.056;2022-11-25T04:30:24;100689.83;;;1.56;100.00
54369;BME280;40266;52.434;17.056;2022-11-25T04:33:08;100702.61;;;1.58;100.00
54369;BME280;40266;52.434;17.056;2022-11-25T04:35:52;100702.29;;;1.59;100.00
54369;BME280;40266;52.434;17.056;2022-11-25T04:38:35;100707.61;;;1.58;100.00
54369;BME280;40266;52.434;17.056;2022-11-25T04:41:18;100711.42;;;1.59;100.00
54369;BME280;40266;52.434;17.056;2022-11-25T04:44:02;100714.19;;;1.60;100.00
54369;BME280;40266;52.434;17.056;2022-11-25T04:46:46;100718.34;;;1.61;100.00
54369;BME280;40266;52.434;17.056;2022-11-25T04:49:29;100720.25;;;1.62;100.00
54369;BME280;40266;52.434;17.056;2022-11-25T04:52:12;100718.38;;;1.63;100.00
54369;BME280;40266;52.434;17.056;2022-11-25T04:54:56;100713.17;;;1.61;100.00
54369;BME280;40266;52.434;17.056;2022-11-25T04:57:39;100712.62;;;1.59;100.00
54369;BME280;40266;52.434;17.056;2022-11-25T05:00:23;100704.85;;;1.57;100.00
54369;BME280;40266;52.434;17.056;2022-11-25T05:03:08;100712.59;;;1.57;100.00
54369;BME280;40266;52.434;17.056;2022-11-25T05:05:51;100710.83;;;1.57;100.00
54369;BME280;40266;52.434;17.056;2022-11-25T05:08:34;100711.35;;;1.56;100.00
54369;BME280;40266;52.434;17.056;2022-11-25T05:11:17;100712.03;;;1.55;100.00
54369;BME280;40266;52.434;17.056;2022-11-25T05:14:00;100711.17;;;1.55;100.00
54369;BME280;40266;52.434;17.056;2022-11-25T05:16:43;100711.16;;;1.55;100.00
54369;BME280;40266;52.434;17.056;2022-11-25T05:19:27;100713.41;;;1.55;100.00
54369;BME280;40266;52.434;17.056;2022-11-25T05:22:12;100714.08;;;1.54;100.00
54369;BME280;40266;52.434;17.056;2022-11-25T05:24:55;100714.95;;;1.55;100.00
54369;BME280;40266;52.434;17.056;2022-11-25T05:27:39;100714.44;;;1.55;100.00
54369;BME280;40266;52.434;17.056;2022-11-25T05:30:23;100714.05;;;1.53;100.00
54369;BME280;40266;52.434;17.056;2022-11-25T05:33:06;100719.39;;;1.53;100.00
54369;BME280;40266;52.434;17.056;2022-11-25T05:35:56;100719.56;;;1.53;100.00
54369;BME280;40266;52.434;17.056;2022-11-25T05:38:43;100717.45;;;1.52;100.00
54369;BME280;40266;52.434;17.056;2022-11-25T05:41:29;100715.22;;;1.51;100.00
54369;BME280;40266;52.434;17.056;2022-11-25T05:44:13;100715.74;;;1.52;100.00
54369;BME280;40266;52.434;17.056;2022-11-25T05:47:03;100718.39;;;1.55;100.00
54369;BME280;40266;52.434;17.056;2022-11-25T05:49:47;100723.94;;;1.57;100.00
54369;BME280;40266;52.434;17.056;2022-11-25T05:52:30;100726.04;;;1.59;100.00
54369;BME280;40266;52.434;17.056;2022-11-25T05:55:15;100728.27;;;1.58;100.00
54369;BME280;40266;52.434;17.056;2022-11-25T05:58:00;100731.54;;;1.58;100.00
54369;BME280;40266;52.434;17.056;2022-11-25T06:00:44;100733.96;;;1.59;100.00
54369;BME280;40266;52.434;17.056;2022-11-25T06:03:28;100731.38;;;1.59;100.00
54369;BME280;40266;52.434;17.056;2022-11-25T06:06:11;100729.11;;;1.57;100.00
54369;BME280;40266;52.434;17.056;2022-11-25T06:08:56;100728.77;;;1.57;100.00
54369;BME280;40266;52.434;17.056;2022-11-25T06:11:39;100727.90;;;1.57;100.00
54369;BME280;40266;52.434;17.056;2022-11-25T06:14:22;100731.54;;;1.58;100.00
54369;BME280;40266;52.434;17.056;2022-11-25T06:17:05;100738.11;;;1.60;100.00
54369;BME280;40266;52.434;17.056;2022-11-25T06:19:53;100737.77;;;1.59;100.00
54369;BME280;40266;52.434;17.056;2022-11-25T06:22:36;100746.03;;;1.60;100.00
54369;BME280;40266;52.434;17.056;2022-11-25T06:25:19;100747.29;;;1.62;100.00
54369;BME280;40266;52.434;17.056;2022-11-25T06:28:02;100742.63;;;1.62;100.00
54369;BME280;40266;52.434;17.056;2022-11-25T06:31:03;100745.54;;;1.61;100.00
54369;BME280;40266;52.434;17.056;2022-11-25T06:33:52;100743.65;;;1.61;100.00
54369;BME280;40266;52.434;17.056;2022-11-25T06:36:36;100749.51;;;1.62;100.00
54369;BME280;40266;52.434;17.056;2022-11-25T06:39:18;100755.92;;;1.64;100.00
54369;BME280;40266;52.434;17.056;2022-11-25T06:42:01;100760.04;;;1.62;100.00
54369;BME280;40266;52.434;17.056;2022-11-25T06:44:44;100763.98;;;1.62;100.00
54369;BME280;40266;52.434;17.056;2022-11-25T06:47:27;100762.23;;;1.61;100.00
54369;BME280;40266;52.434;17.056;2022-11-25T06:50:11;100765.49;;;1.60;100.00
54369;BME280;40266;52.434;17.056;2022-11-25T06:52:54;100769.77;;;1.59;100.00
54369;BME280;40266;52.434;17.056;2022-11-25T06:55:37;100769.27;;;1.59;100.00
54369;BME280;40266;52.434;17.056;2022-11-25T06:58:20;100773.70;;;1.58;100.00
54369;BME280;40266;52.434;17.056;2022-11-25T07:01:20;100774.71;;;1.57;100.00
54369;BME280;40266;52.434;17.056;2022-11-25T07:04:04;100774.86;;;1.55;100.00
54369;BME280;40266;52.434;17.056;2022-11-25T07:06:48;100777.97;;;1.56;100.00
54369;BME280;40266;52.434;17.056;2022-11-25T07:09:31;100777.99;;;1.57;100.00
54369;BME280;40266;52.434;17.056;2022-11-25T07:12:14;100776.83;;;1.59;100.00
54369;BME280;40266;52.434;17.056;2022-11-25T07:14:57;100776.03;;;1.62;100.00
54369;BME280;40266;52.434;17.056;2022-11-25T07:17:40;100779.33;;;1.64;100.00
54369;BME280;40266;52.434;17.056;2022-11-25T07:20:24;100777.26;;;1.63;100.00
54369;BME280;40266;52.434;17.056;2022-11-25T07:23:09;100774.65;;;1.62;100.00
54369;BME280;40266;52.434;17.056;2022-11-25T07:25:52;100776.55;;;1.62;100.00
54369;BME280;40266;52.434;17.056;2022-11-25T07:28:35;100784.14;;;1.63;100.00
54369;BME280;40266;52.434;17.056;2022-11-25T07:31:34;100786.42;;;1.64;100.00
54369;BME280;40266;52.434;17.056;2022-11-25T07:34:19;100794.86;;;1.65;100.00
54369;BME280;40266;52.434;17.056;2022-11-25T07:37:03;100800.23;;;1.66;100.00
54369;BME280;40266;52.434;17.056;2022-11-25T07:39:45;100809.39;;;1.68;100.00
54369;BME280;40266;52.434;17.056;2022-11-25T07:42:28;100808.23;;;1.71;100.00
54369;BME280;40266;52.434;17.056;2022-11-25T07:45:11;100806.72;;;1.73;100.00
54369;BME280;40266;52.434;17.056;2022-11-25T07:47:59;100806.41;;;1.74;100.00
54369;BME280;40266;52.434;17.056;2022-11-25T07:50:45;100808.96;;;1.73;100.00
54369;BME280;40266;52.434;17.056;2022-11-25T07:53:29;100808.27;;;1.73;100.00
54369;BME280;40266;52.434;17.056;2022-11-25T07:56:12;100811.05;;;1.74;100.00
54369;BME280;40266;52.434;17.056;2022-11-25T07:58:56;100809.69;;;1.74;100.00
54369;BME280;40266;52.434;17.056;2022-11-25T08:01:44;100806.80;;;1.76;100.00
54369;BME280;40266;52.434;17.056;2022-11-25T08:04:27;100807.64;;;1.76;100.00
54369;BME280;40266;52.434;17.056;2022-11-25T08:07:10;100810.92;;;1.76;100.00
54369;BME280;40266;52.434;17.056;2022-11-25T08:09:53;100819.61;;;1.80;100.00
54369;BME280;40266;52.434;17.056;2022-11-25T08:12:36;100827.61;;;1.83;100.00
54369;BME280;40266;52.434;17.056;2022-11-25T08:15:19;100831.23;;;1.83;100.00
54369;BME280;40266;52.434;17.056;2022-11-25T08:18:01;100829.36;;;1.85;100.00
54369;BME280;40266;52.434;17.056;2022-11-25T08:20:46;100828.68;;;1.86;100.00
54369;BME280;40266;52.434;17.056;2022-11-25T08:23:30;100833.52;;;1.86;100.00
54369;BME280;40266;52.434;17.056;2022-11-25T08:26:20;100832.14;;;1.86;100.00
54369;BME280;40266;52.434;17.056;2022-11-25T08:29:05;100829.05;;;1.86;100.00
54369;BME280;40266;52.434;17.056;2022-11-25T08:31:48;100828.62;;;1.91;100.00
54369;BME280;40266;52.434;17.056;2022-11-25T08:34:31;100826.95;;;1.94;100.00
54369;BME280;40266;52.434;17.056;2022-11-25T08:37:14;100827.67;;;1.95;100.00
54369;BME280;40266;52.434;17.056;2022-11-25T08:39:57;100823.20;;;1.95;100.00
54369;BME280;40266;52.434;17.056;2022-11-25T08:42:40;100823.67;;;1.94;100.00
54369;BME280;40266;52.434;17.056;2022-11-25T08:45:23;100816.46;;;1.94;100.00
54369;BME280;40266;52.434;17.056;2022-11-25T08:48:06;100818.02;;;1.94;100.00
54369;BME280;40266;52.434;17.056;2022-11-25T08:50:53;100817.18;;;1.96;100.00
54369;BME280;40266;52.434;17.056;2022-11-25T08:53:37;100817.90;;;1.97;100.00
54369;BME280;40266;52.434;17.056;2022-11-25T08:56:22;100817.58;;;1.99;100.00
54369;BME280;40266;52.434;17.056;2022-11-25T08:59:08;100818.14;;;2.00;100.00
54369;BME280;40266;52.434;17.056;2022-11-25T09:01:50;100820.83;;;2.06;100.00
54369;BME280;40266;52.434;17.056;2022-11-25T09:04:34;100822.20;;;2.06;100.00
54369;BME280;40266;52.434;17.056;2022-11-25T09:07:17;100823.47;;;2.09;100.00
54369;BME280;40266;52.434;17.056;2022-11-25T09:10:00;100831.14;;;2.13;100.00
54369;BME280;40266;52.434;17.056;2022-11-25T09:12:43;100833.27;;;2.17;100.00
54369;BME280;40266;52.434;17.056;2022-11-25T09:15:26;100835.41;;;2.20;100.00
54369;BME280;40266;52.434;17.056;2022-11-25T09:18:09;100839.02;;;2.20;100.00
54369;BME280;40266;52.434;17.056;2022-11-25T09:20:54;100840.13;;;2.24;100.00
54369;BME280;40266;52.434;17.056;2022-11-25T09:23:38;100840.02;;;2.27;100.00
54369;BME280;40266;52.434;17.056;2022-11-25T09:26:26;100830.52;;;2.26;100.00
54369;BME280;40266;52.434;17.056;2022-11-25T09:29:11;100827.44;;;2.27;100.00
54369;BME280;40266;52.434;17.056;2022-11-25T09:31:55;100826.74;;;2.27;100.00
54369;BME280;40266;52.434;17.056;2022-11-25T09:34:38;100828.84;;;2.28;100.00
54369;BME280;40266;52.434;17.056;2022-11-25T09:37:21;100831.46;;;2.31;100.00
54369;BME280;40266;52.434;17.056;2022-11-25T09:40:06;100832.73;;;2.34;100.00
54369;BME280;40266;52.434;17.056;2022-11-25T09:52:25;100834.90;;;2.30;100.00
54369;BME280;40266;52.434;17.056;2022-11-25T09:55:15;100834.42;;;2.32;100.00
54369;BME280;40266;52.434;17.056;2022-11-25T09:58:22;100837.08;;;2.36;100.00
54369;BME280;40266;52.434;17.056;2022-11-25T10:01:14;100830.73;;;2.37;100.00
54369;BME280;40266;52.434;17.056;2022-11-25T10:04:21;100833.48;;;2.38;100.00
54369;BME280;40266;52.434;17.056;2022-11-25T10:07:35;100833.67;;;2.39;100.00
54369;BME280;40266;52.434;17.056;2022-11-25T10:10:50;100837.34;;;2.41;100.00
54369;BME280;40266;52.434;17.056;2022-11-25T10:22:59;100841.77;;;2.47;100.00
54369;BME280;40266;52.434;17.056;2022-11-25T10:25:45;100845.55;;;2.47;100.00
54369;BME280;40266;52.434;17.056;2022-11-25T10:28:31;100850.23;;;2.48;100.00
54369;BME280;40266;52.434;17.056;2022-11-25T10:31:18;100852.83;;;2.49;100.00
54369;BME280;40266;52.434;17.056;2022-11-25T10:34:04;100854.05;;;2.50;100.00
54369;BME280;40266;52.434;17.056;2022-11-25T10:36:53;100852.89;;;2.52;100.00
54369;BME280;40266;52.434;17.056;2022-11-25T10:39:38;100851.55;;;2.55;100.00
54369;BME280;40266;52.434;17.056;2022-11-25T10:42:22;100854.84;;;2.56;100.00
54369;BME280;40266;52.434;17.056;2022-11-25T10:45:06;100856.83;;;2.60;100.00
54369;BME280;40266;52.434;17.056;2022-11-25T10:47:55;100857.22;;;2.62;100.00
54369;BME280;40266;52.434;17.056;2022-11-25T10:54:06;100865.14;;;2.62;100.00
54369;BME280;40266;52.434;17.056;2022-11-25T10:56:53;100868.05;;;2.61;100.00
54369;BME280;40266;52.434;17.056;2022-11-25T10:59:38;100869.69;;;2.56;100.00
54369;BME280;40266;52.434;17.056;2022-11-25T11:08:05;100868.95;;;2.54;100.00
54369;BME280;40266;52.434;17.056;2022-11-25T11:13:57;100867.05;;;2.53;100.00
54369;BME280;40266;52.434;17.056;2022-11-25T11:16:41;100864.66;;;2.55;100.00
54369;BME280;40266;52.434;17.056;2022-11-25T11:19:26;100862.66;;;2.59;100.00
54369;BME280;40266;52.434;17.056;2022-11-25T11:22:16;100864.47;;;2.63;100.00
54369;BME280;40266;52.434;17.056;2022-11-25T11:25:07;100861.30;;;2.69;100.00
54369;BME280;40266;52.434;17.056;2022-11-25T11:27:50;100861.16;;;2.71;100.00
54369;BME280;40266;52.434;17.056;2022-11-25T11:30:33;100860.33;;;2.73;100.00
54369;BME280;40266;52.434;17.056;2022-11-25T11:33:35;100860.41;;;2.78;100.00
54369;BME280;40266;52.434;17.056;2022-11-25T11:48:39;100860.34;;;2.93;100.00
54369;BME280;40266;52.434;17.056;2022-11-25T11:54:08;100865.61;;;2.99;100.00
54369;BME280;40266;52.434;17.056;2022-11-25T11:56:59;100865.94;;;2.99;100.00
54369;BME280;40266;52.434;17.056;2022-11-25T11:59:44;100865.63;;;3.00;100.00
54369;BME280;40266;52.434;17.056;2022-11-25T12:02:31;100865.64;;;3.02;100.00
54369;BME280;40266;52.434;17.056;2022-11-25T12:05:17;100865.65;;;3.02;100.00
54369;BME280;40266;52.434;17.056;2022-11-25T12:11:03;100865.75;;;2.98;100.00
54369;BME280;40266;52.434;17.056;2022-11-25T12:16:54;100860.95;;;2.99;100.00
54369;BME280;40266;52.434;17.056;2022-11-25T12:22:29;100860.31;;;3.03;100.00
54369;BME280;40266;52.434;17.056;2022-11-25T12:25:18;100857.94;;;3.05;100.00
54369;BME280;40266;52.434;17.056;2022-11-25T12:28:04;100857.16;;;3.10;100.00
54369;BME280;40266;52.434;17.056;2022-11-25T12:36:39;100853.58;;;3.13;100.00
54369;BME280;40266;52.434;17.056;2022-11-25T12:42:17;100859.65;;;3.15;100.00
54369;BME280;40266;52.434;17.056;2022-11-25T12:47:47;100853.80;;;3.17;100.00
54369;BME280;40266;52.434;17.056;2022-11-25T12:51:15;100854.36;;;3.20;100.00
54369;BME280;40266;52.434;17.056;2022-11-25T12:53:43;100853.50;;;3.19;100.00
54369;BME280;40266;52.434;17.056;2022-11-25T12:57:14;100852.61;;;3.18;100.00
54369;BME280;40266;52.434;17.056;2022-11-25T13:05:17;100851.16;;;3.24;100.00
54369;BME280;40266;52.434;17.056;2022-11-25T13:11:35;100856.05;;;3.28;100.00
54369;BME280;40266;52.434;17.056;2022-11-25T13:14:38;100859.33;;;3.28;100.00
54369;BME280;40266;52.434;17.056;2022-11-25T13:17:34;100858.83;;;3.29;100.00
54369;BME280;40266;52.434;17.056;2022-11-25T13:34:40;100886.11;;;3.30;100.00
54369;BME280;40266;52.434;17.056;2022-11-25T13:37:34;100884.55;;;3.29;100.00
54369;BME280;40266;52.434;17.056;2022-11-25T13:43:18;100890.79;;;3.30;100.00
54369;BME280;40266;52.434;17.056;2022-11-25T13:46:02;100888.05;;;3.32;100.00
54369;BME280;40266;52.434;17.056;2022-11-25T13:48:45;100887.38;;;3.33;100.00
54369;BME280;40266;52.434;17.056;2022-11-25T13:51:28;100887.55;;;3.33;100.00
54369;BME280;40266;52.434;17.056;2022-11-25T13:54:14;100889.24;;;3.31;100.00
54369;BME280;40266;52.434;17.056;2022-11-25T13:59:57;100892.86;;;3.30;100.00
54369;BME280;40266;52.434;17.056;2022-11-25T14:02:41;100894.55;;;3.28;100.00
54369;BME280;40266;52.434;17.056;2022-11-25T14:08:33;100902.11;;;3.27;100.00
54369;BME280;40266;52.434;17.056;2022-11-25T14:26:47;100914.31;;;3.12;100.00
54369;BME280;40266;52.434;17.056;2022-11-25T14:34:58;100915.88;;;3.13;100.00
54369;BME280;40266;52.434;17.056;2022-11-25T14:37:58;100915.02;;;3.14;100.00
54369;BME280;40266;52.434;17.056;2022-11-25T14:40:51;100917.63;;;3.14;100.00
54369;BME280;40266;52.434;17.056;2022-11-25T14:43:38;100917.44;;;3.13;100.00
54369;BME280;40266;52.434;17.056;2022-11-25T14:46:23;100913.45;;;3.13;100.00
54369;BME280;40266;52.434;17.056;2022-11-25T14:49:07;100915.73;;;3.14;100.00
54369;BME280;40266;52.434;17.056;2022-11-25T14:52:14;100919.36;;;3.15;100.00
54369;BME280;40266;52.434;17.056;2022-11-25T14:54:58;100921.59;;;3.14;100.00
54369;BME280;40266;52.434;17.056;2022-11-25T14:57:42;100925.00;;;3.11;100.00
54369;BME280;40266;52.434;17.056;2022-11-25T15:00:25;100925.83;;;3.09;100.00
54369;BME280;40266;52.434;17.056;2022-11-25T15:03:13;100925.30;;;3.09;100.00
54369;BME280;40266;52.434;17.056;2022-11-25T15:06:00;100928.55;;;3.07;100.00
54369;BME280;40266;52.434;17.056;2022-11-25T15:08:45;100930.73;;;3.05;100.00
54369;BME280;40266;52.434;17.056;2022-11-25T15:11:35;100931.75;;;3.03;100.00
54369;BME280;40266;52.434;17.056;2022-11-25T15:14:22;100935.71;;;3.02;100.00
54369;BME280;40266;52.434;17.056;2022-11-25T15:17:06;100936.72;;;3.00;100.00
54369;BME280;40266;52.434;17.056;2022-11-25T15:19:49;100940.85;;;3.00;100.00
54369;BME280;40266;52.434;17.056;2022-11-25T15:22:32;100945.54;;;3.02;100.00
54369;BME280;40266;52.434;17.056;2022-11-25T15:25:15;100943.79;;;3.01;100.00
54369;BME280;40266;52.434;17.056;2022-11-25T15:28:00;100941.52;;;2.99;100.00
54369;BME280;40266;52.434;17.056;2022-11-25T15:30:59;100945.46;;;2.98;100.00
54369;BME280;40266;52.434;17.056;2022-11-25T15:33:43;100947.20;;;2.99;100.00
54369;BME280;40266;52.434;17.056;2022-11-25T15:36:26;100945.65;;;3.00;100.00
54369;BME280;40266;52.434;17.056;2022-11-25T15:39:13;100943.76;;;3.00;100.00
54369;BME280;40266;52.434;17.056;2022-11-25T15:42:01;100951.20;;;3.00;100.00
54369;BME280;40266;52.434;17.056;2022-11-25T15:44:57;100952.21;;;3.00;100.00
54369;BME280;40266;52.434;17.056;2022-11-25T15:47:48;100955.14;;;3.00;100.00
54369;BME280;40266;52.434;17.056;2022-11-25T15:50:31;100953.41;;;2.99;100.00
54369;BME280;40266;52.434;17.056;2022-11-25T15:53:22;100958.24;;;2.99;100.00
54369;BME280;40266;52.434;17.056;2022-11-25T15:56:13;100959.64;;;3.00;100.00
54369;BME280;40266;52.434;17.056;2022-11-25T15:58:57;100961.00;;;2.99;100.00
54369;BME280;40266;52.434;17.056;2022-11-25T16:01:43;100953.58;;;2.99;100.00
54369;BME280;40266;52.434;17.056;2022-11-25T16:04:26;100955.32;;;2.99;100.00
54369;BME280;40266;52.434;17.056;2022-11-25T16:07:20;100953.77;;;3.00;100.00
54369;BME280;40266;52.434;17.056;2022-11-25T16:10:15;100953.45;;;3.01;100.00
54369;BME280;40266;52.434;17.056;2022-11-25T16:16:39;100958.80;;;3.01;100.00
54369;BME280;40266;52.434;17.056;2022-11-25T16:19:18;100960.87;;;3.00;100.00
54369;BME280;40266;52.434;17.056;2022-11-25T16:22:02;100963.60;;;3.00;100.00
54369;BME280;40266;52.434;17.056;2022-11-25T16:24:49;100963.59;;;2.98;100.00